createdAt,value
2019-04-21T00:00:07.199Z,11.22
2019-04-21T00:02:34.475Z,11.83
2019-04-21T00:05:22.867Z,14.73
2019-04-21T00:07:52.449Z,16.17
2019-04-21T00:10:23.373Z,16.20
2019-04-21T00:12:49.226Z,15.05
2019-04-21T00:15:07.447Z,14.47
2019-04-21T00:17:27.033Z,15.35
2019-04-21T00:20:07.638Z,12.80
2019-04-21T00:22:37.753Z,17.50
2019-04-21T00:25:08.685Z,17.00
2019-04-21T00:27:41.339Z,15.10
2019-04-21T00:30:19.386Z,14.55
2019-04-21T00:32:33.426Z,15.13
2019-04-21T00:34:59.004Z,14.45
2019-04-21T00:37:42.575Z,17.55
2019-04-21T00:40:27.759Z,17.00
2019-04-21T00:42:38.646Z,16.85
2019-04-21T00:45:04.911Z,18.65
2019-04-21T00:47:57.685Z,17.65
2019-04-21T00:50:25.590Z,14.47
2019-04-21T00:52:51.231Z,15.83
2019-04-21T00:55:25.065Z,11.97
2019-04-21T00:57:45.535Z,11.68
2019-04-21T01:00:10.635Z,15.08
2019-04-21T01:02:41.610Z,16.87
2019-04-21T01:05:11.182Z,13.22
2019-04-21T01:07:37.089Z,14.43
2019-04-21T01:09:58.727Z,14.30
2019-04-21T01:12:37.662Z,13.48
2019-04-21T01:15:10.957Z,15.90
2019-04-21T01:17:22.956Z,16.32
2019-04-21T01:20:00.000Z,14.55
2019-04-21T01:22:09.763Z,14.60
2019-04-21T01:24:41.973Z,17.30
2019-04-21T01:27:18.637Z,14.98
2019-04-21T01:29:58.424Z,15.48
2019-04-21T01:32:29.562Z,14.47
2019-04-21T01:34:51.340Z,13.65
2019-04-21T01:37:28.862Z,14.05
2019-04-21T01:39:58.480Z,16.20
2019-04-21T01:42:21.073Z,15.28
2019-04-21T01:44:53.560Z,15.60
2019-04-21T01:47:17.574Z,18.60
2019-04-21T01:49:43.190Z,15.15
2019-04-21T01:52:24.043Z,14.73
2019-04-21T01:54:51.992Z,17.55
2019-04-21T01:57:17.305Z,17.45
2019-04-21T01:59:42.590Z,16.02
2019-04-21T02:02:21.550Z,16.25
2019-04-21T02:04:48.418Z,17.15
2019-04-21T02:07:14.831Z,18.87
2019-04-21T02:09:46.037Z,17.82
2019-04-21T02:12:17.270Z,15.53
2019-04-21T02:14:50.571Z,21.10
2019-04-21T02:17:14.763Z,15.63
2019-04-21T02:19:37.606Z,17.87
2019-04-21T02:22:04.906Z,14.53
2019-04-21T02:27:13.001Z,20.20
2019-04-21T02:29:43.365Z,14.80
2019-04-21T02:39:52.290Z,17.37
2019-04-21T02:44:51.741Z,15.13
2019-04-21T02:47:21.591Z,14.45
2019-04-21T02:52:30.045Z,16.02
2019-04-21T02:57:18.437Z,14.28
2019-04-21T03:00:00.445Z,16.95
2019-04-21T03:02:17.108Z,15.48
2019-04-21T03:04:44.956Z,16.80
2019-04-21T03:07:13.092Z,14.98
2019-04-21T03:09:44.477Z,15.70
2019-04-21T03:12:11.239Z,14.95
2019-04-21T03:17:05.805Z,12.85
2019-04-21T03:19:46.111Z,16.70
2019-04-21T03:22:18.197Z,14.93
2019-04-21T03:24:54.022Z,16.73
2019-04-21T03:29:37.009Z,16.55
2019-04-21T03:34:57.387Z,14.68
2019-04-21T03:39:43.237Z,17.85
2019-04-21T03:44:33.122Z,18.90
2019-04-21T03:49:41.005Z,15.18
2019-04-21T03:52:03.629Z,17.75
2019-04-21T03:54:25.267Z,15.45
2019-04-21T03:57:10.540Z,16.67
2019-04-21T03:59:19.871Z,19.07
2019-04-21T04:02:01.889Z,16.90
2019-04-21T04:04:27.884Z,17.52
2019-04-21T04:07:08.169Z,19.30
2019-04-21T04:09:30.781Z,19.45
2019-04-21T04:11:53.049Z,15.70
2019-04-21T04:14:26.754Z,16.80
2019-04-21T04:16:57.043Z,16.15
2019-04-21T04:19:30.150Z,19.42
2019-04-21T04:24:22.625Z,16.17
2019-04-21T04:26:47.534Z,16.35
2019-04-21T04:29:20.385Z,18.15
2019-04-21T04:31:42.758Z,16.42
2019-04-21T04:34:21.749Z,17.50
2019-04-21T04:36:59.222Z,16.85
2019-04-21T04:39:36.548Z,18.50
2019-04-21T04:41:53.308Z,22.70
2019-04-21T04:44:37.262Z,17.80
2019-04-21T04:49:23.989Z,17.02
2019-04-21T04:52:02.608Z,18.87
2019-04-21T04:54:11.562Z,14.63
2019-04-21T04:56:54.287Z,17.85
2019-04-21T04:59:32.820Z,16.07
2019-04-21T05:02:00.208Z,20.70
2019-04-21T05:04:20.878Z,15.32
2019-04-21T05:14:10.009Z,21.00
2019-04-21T05:19:10.689Z,16.40
2019-04-21T05:21:34.680Z,17.73
2019-04-21T05:23:51.059Z,17.07
2019-04-21T05:26:14.684Z,14.45
2019-04-21T05:28:44.955Z,14.45
2019-04-21T05:31:29.660Z,17.10
2019-04-21T05:33:57.652Z,14.98
2019-04-21T05:36:23.901Z,16.82
2019-04-21T05:38:47.783Z,16.37
2019-04-21T05:41:13.077Z,13.50
2019-04-21T05:43:51.388Z,16.12
2019-04-21T05:46:21.269Z,13.50
2019-04-21T05:48:48.292Z,15.35
2019-04-21T05:51:18.424Z,12.37
2019-04-21T05:53:49.221Z,15.15
2019-04-21T05:56:27.244Z,12.82
2019-04-21T05:58:57.953Z,11.70
2019-04-21T06:01:31.386Z,13.85
2019-04-21T06:03:52.100Z,14.10
2019-04-21T06:06:20.287Z,13.20
2019-04-21T06:08:49.992Z,11.93
2019-04-21T06:11:19.149Z,12.47
2019-04-21T06:16:13.937Z,11.28
2019-04-21T06:18:47.988Z,11.80
2019-04-21T06:21:16.389Z,10.45
2019-04-21T06:23:42.275Z,10.90
2019-04-21T06:26:42.138Z,9.83
2019-04-21T06:28:47.262Z,9.75
2019-04-21T06:38:54.038Z,9.88
2019-04-21T06:41:14.764Z,7.53
2019-04-21T06:46:12.324Z,7.05
2019-04-21T06:48:40.957Z,7.22
2019-04-21T06:51:13.686Z,7.95
2019-04-21T06:53:45.990Z,8.95
2019-04-21T06:56:08.167Z,6.75
2019-04-21T06:58:38.537Z,7.12
2019-04-21T07:01:03.875Z,7.92
2019-04-21T07:03:34.762Z,5.78
2019-04-21T07:06:08.018Z,9.13
2019-04-21T07:08:42.056Z,8.60
2019-04-21T07:11:03.988Z,5.60
2019-04-21T07:13:32.963Z,5.78
2019-04-21T07:16:04.761Z,7.90
2019-04-21T07:18:39.826Z,5.37
2019-04-21T07:21:00.193Z,6.30
2019-04-21T07:23:31.951Z,5.90
2019-04-21T07:26:00.925Z,4.75
2019-04-21T07:28:32.244Z,4.35
2019-04-21T07:31:22.795Z,6.75
2019-04-21T07:35:55.451Z,6.15
2019-04-21T07:38:24.401Z,5.37
2019-04-21T07:40:48.462Z,5.17
2019-04-21T07:43:16.386Z,4.60
2019-04-21T07:45:44.434Z,6.85
2019-04-21T07:48:19.078Z,6.75
2019-04-21T07:50:51.361Z,5.97
2019-04-21T07:53:21.197Z,5.12
2019-04-21T07:58:17.450Z,4.50
2019-04-21T08:00:51.330Z,4.83
2019-04-21T08:03:15.924Z,4.25
2019-04-21T08:05:45.803Z,3.77
2019-04-21T08:08:14.311Z,4.45
2019-04-21T08:10:39.224Z,5.28
2019-04-21T08:13:25.283Z,4.20
2019-04-21T08:15:49.432Z,4.25
2019-04-21T08:18:12.741Z,4.90
2019-04-21T08:20:42.907Z,4.10
2019-04-21T08:23:13.444Z,4.17
2019-04-21T08:25:46.316Z,3.42
2019-04-21T08:28:08.993Z,4.45
2019-04-21T08:30:54.907Z,3.10
2019-04-21T08:33:23.333Z,3.80
2019-04-21T08:36:05.520Z,5.20
2019-04-21T08:38:08.187Z,3.70
2019-04-21T08:43:09.325Z,5.92
2019-04-21T08:48:08.337Z,3.47
2019-04-21T08:50:32.817Z,4.83
2019-04-21T08:53:19.684Z,3.72
2019-04-21T08:55:32.097Z,4.72
2019-04-21T08:58:16.929Z,3.90
2019-04-21T09:00:32.424Z,3.75
2019-04-21T09:03:04.544Z,3.50
2019-04-21T09:05:31.220Z,3.02
2019-04-21T09:07:57.138Z,3.75
2019-04-21T09:10:31.148Z,2.37
2019-04-21T09:13:01.344Z,7.35
2019-04-21T09:15:25.241Z,10.35
2019-04-21T09:17:49.049Z,7.70
2019-04-21T09:20:31.064Z,6.12
2019-04-21T09:22:54.270Z,8.53
2019-04-21T09:25:30.886Z,7.00
2019-04-21T09:27:59.123Z,5.90
2019-04-21T09:30:06.957Z,7.05
2019-04-21T09:32:37.052Z,7.70
2019-04-21T09:35:10.290Z,10.00
2019-04-21T09:37:44.473Z,11.03
2019-04-21T09:40:06.785Z,6.62
2019-04-21T09:42:41.191Z,6.25
2019-04-21T09:45:07.919Z,7.45
2019-04-21T09:47:42.189Z,8.95
2019-04-21T09:50:06.626Z,9.63
2019-04-21T09:52:41.758Z,10.00
2019-04-21T09:55:13.416Z,5.05
2019-04-21T09:57:41.484Z,7.80
2019-04-21T10:00:13.168Z,9.30
2019-04-21T10:02:42.836Z,10.20
2019-04-21T10:05:05.414Z,10.90
2019-04-21T10:07:37.076Z,8.00
2019-04-21T10:10:04.214Z,8.10
2019-04-21T10:12:32.867Z,12.88
2019-04-21T10:15:04.185Z,9.13
2019-04-21T10:17:33.042Z,7.45
2019-04-21T10:20:00.787Z,11.03
2019-04-21T10:22:28.817Z,7.10
2019-04-21T10:24:56.552Z,8.53
2019-04-21T10:27:25.462Z,8.73
2019-04-21T10:29:53.988Z,13.03
2019-04-21T10:32:23.637Z,6.30
2019-04-21T10:34:50.942Z,6.35
2019-04-21T10:37:18.801Z,7.05
2019-04-21T10:39:47.536Z,7.30
2019-04-21T10:42:15.536Z,7.25
2019-04-21T10:44:43.279Z,6.50
2019-04-21T10:47:11.038Z,8.00
2019-04-21T10:49:38.771Z,8.28
2019-04-21T10:52:08.893Z,7.05
2019-04-21T10:54:49.111Z,8.88
2019-04-21T10:57:06.413Z,7.33
2019-04-21T10:59:34.988Z,9.50
2019-04-21T11:02:03.160Z,10.78
2019-04-21T11:04:35.383Z,8.98
2019-04-21T11:07:07.651Z,7.87
2019-04-21T11:09:29.864Z,7.92
2019-04-21T11:11:57.841Z,7.87
2019-04-21T11:14:25.511Z,8.78
2019-04-21T11:16:54.681Z,8.65
2019-04-21T11:19:22.413Z,9.05
2019-04-21T11:21:49.999Z,6.97
2019-04-21T11:24:18.078Z,7.28
2019-04-21T11:26:45.855Z,6.72
2019-04-21T11:29:14.863Z,9.38
2019-04-21T11:31:43.139Z,9.90
2019-04-21T11:34:11.300Z,7.83
2019-04-21T11:36:40.378Z,7.83
2019-04-21T11:39:21.057Z,8.28
2019-04-21T11:41:37.456Z,5.37
2019-04-21T11:44:05.122Z,5.42
2019-04-21T11:46:34.138Z,6.30
2019-04-21T11:49:02.475Z,9.45
2019-04-21T11:51:31.045Z,8.00
2019-04-21T11:53:59.157Z,10.00
2019-04-21T11:56:27.363Z,6.47
2019-04-21T11:58:55.203Z,6.28
2019-04-21T12:01:23.506Z,7.10
2019-04-21T12:03:51.738Z,6.42
2019-04-21T12:06:19.495Z,6.75
2019-04-21T12:08:49.913Z,8.95
2019-04-21T12:11:17.678Z,9.18
2019-04-21T12:13:45.840Z,7.42
2019-04-21T12:16:14.869Z,7.20
2019-04-21T12:18:42.991Z,6.72
2019-04-21T12:21:11.493Z,6.85
2019-04-21T12:23:40.532Z,5.80
2019-04-21T12:26:09.262Z,9.80
2019-04-21T12:28:37.636Z,7.40
2019-04-21T12:31:05.447Z,5.78
2019-04-21T12:33:34.159Z,5.95
2019-04-21T12:36:02.148Z,7.10
2019-04-21T12:38:40.382Z,6.28
2019-04-21T12:41:00.296Z,7.00
2019-04-21T12:43:28.543Z,9.40
2019-04-21T12:45:56.381Z,9.43
2019-04-21T12:48:29.771Z,6.25
2019-04-21T12:51:03.891Z,5.20
2019-04-21T12:53:31.913Z,5.97
2019-04-21T12:56:00.362Z,5.40
2019-04-21T12:58:31.036Z,7.87
2019-04-21T13:00:58.827Z,7.95
2019-04-21T13:03:28.275Z,9.30
2019-04-21T13:05:56.096Z,6.20
2019-04-21T13:08:24.936Z,6.65
2019-04-21T13:10:53.868Z,5.58
2019-04-21T13:13:22.090Z,5.30
2019-04-21T13:15:51.443Z,6.65
2019-04-21T13:18:20.483Z,4.65
2019-04-21T13:20:48.520Z,5.17
2019-04-21T13:23:16.784Z,11.48
2019-04-21T13:25:45.777Z,8.48
2019-04-21T13:28:14.518Z,5.83
2019-04-21T13:30:42.358Z,8.75
2019-04-21T13:33:11.196Z,5.17
2019-04-21T13:35:39.115Z,7.28
2019-04-21T13:38:18.865Z,6.03
2019-04-21T13:40:54.455Z,12.63
2019-04-21T13:43:08.720Z,8.18
2019-04-21T13:45:37.326Z,11.20
2019-04-21T13:48:06.557Z,5.83
2019-04-21T13:50:35.301Z,7.30
2019-04-21T13:53:03.189Z,5.62
2019-04-21T13:55:31.863Z,4.33
2019-04-21T13:57:59.938Z,5.10
2019-04-21T14:00:27.673Z,7.30
2019-04-21T14:02:56.496Z,7.50
2019-04-21T14:05:24.515Z,4.90
2019-04-21T14:07:52.371Z,6.97
2019-04-21T14:10:20.004Z,6.42
2019-04-21T14:12:48.906Z,7.22
2019-04-21T14:15:18.084Z,9.70
2019-04-21T14:17:46.765Z,7.70
2019-04-21T14:20:15.310Z,7.30
2019-04-21T14:22:44.152Z,5.28
2019-04-21T14:25:12.130Z,5.05
2019-04-21T14:27:39.937Z,6.95
2019-04-21T14:30:08.554Z,8.40
2019-04-21T14:32:36.195Z,12.63
2019-04-21T14:35:06.857Z,5.50
2019-04-21T14:37:34.881Z,6.83
2019-04-21T14:40:07.418Z,5.22
2019-04-21T14:42:32.442Z,4.58
2019-04-21T14:45:00.836Z,5.83
2019-04-21T14:47:29.474Z,10.20
2019-04-21T14:49:57.447Z,7.05
2019-04-21T14:52:25.389Z,5.22
2019-04-21T14:54:54.319Z,4.12
2019-04-21T14:57:23.082Z,5.08
2019-04-21T14:59:51.177Z,7.40
2019-04-21T15:02:20.153Z,4.72
2019-04-21T15:04:49.246Z,5.42
2019-04-21T15:07:17.169Z,8.63
2019-04-21T15:09:46.095Z,4.55
2019-04-21T15:12:14.074Z,4.90
2019-04-21T15:14:42.259Z,4.78
2019-04-21T15:17:10.005Z,5.20
2019-04-21T15:19:38.373Z,5.28
2019-04-21T15:22:06.281Z,7.03
2019-04-21T15:24:34.264Z,4.20
2019-04-21T15:27:02.946Z,5.60
2019-04-21T15:29:30.897Z,5.62
2019-04-21T15:31:58.802Z,6.30
2019-04-21T15:34:27.350Z,4.87
2019-04-21T15:36:55.599Z,4.30
2019-04-21T15:39:23.590Z,3.98
2019-04-21T15:41:52.429Z,6.35
2019-04-21T15:44:20.841Z,6.92
2019-04-21T15:46:49.988Z,7.15
2019-04-21T15:49:17.719Z,7.00
2019-04-21T15:51:46.373Z,7.47
2019-04-21T15:54:14.494Z,4.58
2019-04-21T15:56:42.676Z,4.05
2019-04-21T15:59:10.566Z,5.92
2019-04-21T16:01:38.879Z,5.42
2019-04-21T16:04:08.002Z,5.97
2019-04-21T16:06:37.228Z,6.53
2019-04-21T16:09:08.386Z,5.45
2019-04-21T16:11:36.052Z,4.03
2019-04-21T16:14:03.822Z,4.50
2019-04-21T16:16:32.712Z,5.78
2019-04-21T16:19:00.781Z,4.80
2019-04-21T16:21:31.633Z,5.20
2019-04-21T16:24:00.519Z,5.08
2019-04-21T16:26:28.812Z,6.03
2019-04-21T16:28:57.438Z,4.87
2019-04-21T16:31:25.625Z,4.50
2019-04-21T16:33:54.745Z,6.80
2019-04-21T16:36:23.321Z,8.03
2019-04-21T16:38:51.478Z,3.27
2019-04-21T16:41:20.329Z,7.05
2019-04-21T16:43:49.250Z,6.05
2019-04-21T16:46:17.898Z,4.25
2019-04-21T16:48:45.987Z,6.37
2019-04-21T16:51:15.098Z,6.78
2019-04-21T16:53:43.934Z,5.58
2019-04-21T16:56:12.975Z,6.80
2019-04-21T16:58:40.992Z,4.22
2019-04-21T17:01:14.046Z,9.15
2019-04-21T17:03:37.941Z,5.08
2019-04-21T17:06:06.880Z,6.70
2019-04-21T17:08:34.646Z,6.62
2019-04-21T17:11:10.931Z,6.47
2019-04-21T17:13:32.154Z,5.05
2019-04-21T17:16:34.099Z,10.25
2019-04-21T17:18:43.482Z,4.83
2019-04-21T17:21:01.192Z,3.35
2019-04-21T17:23:29.334Z,4.83
2019-04-21T17:25:57.218Z,5.08
2019-04-21T17:28:25.752Z,4.80
2019-04-21T17:30:54.564Z,4.75
2019-04-21T17:33:26.886Z,5.85
2019-04-21T17:35:51.549Z,3.80
2019-04-21T17:38:19.132Z,4.90
2019-04-21T17:40:47.538Z,8.58
2019-04-21T17:43:17.990Z,3.55
2019-04-21T17:45:46.768Z,4.42
2019-04-21T17:48:16.453Z,4.55
2019-04-21T17:50:45.459Z,5.42
2019-04-21T17:53:16.209Z,10.00
2019-04-21T17:55:46.663Z,8.05
2019-04-21T17:58:26.950Z,11.18
2019-04-21T18:03:40.725Z,15.95
2019-04-21T18:05:56.257Z,14.07
2019-04-21T18:08:30.178Z,11.48
2019-04-21T18:10:49.367Z,6.92
2019-04-21T18:13:13.751Z,5.35
2019-04-21T18:15:54.431Z,3.80
2019-04-21T18:18:08.439Z,5.78
2019-04-21T18:20:37.634Z,11.10
2019-04-21T18:23:09.096Z,3.25
2019-04-21T18:25:45.290Z,4.08
2019-04-21T18:28:04.969Z,6.85
2019-04-21T18:30:52.402Z,5.10
2019-04-21T18:33:26.868Z,3.30
2019-04-21T18:35:52.922Z,5.30
2019-04-21T18:38:26.108Z,4.62
2019-04-21T18:40:51.312Z,5.08
2019-04-21T18:43:48.932Z,9.13
2019-04-21T18:46:13.491Z,5.95
2019-04-21T18:48:27.422Z,10.00
2019-04-21T18:50:54.634Z,7.53
2019-04-21T18:53:32.695Z,7.65
2019-04-21T18:55:48.205Z,7.47
2019-04-21T18:58:15.285Z,8.95
2019-04-21T19:00:44.204Z,6.72
2019-04-21T19:03:14.051Z,9.73
2019-04-21T19:05:47.843Z,4.78
2019-04-21T19:08:27.885Z,8.03
2019-04-21T19:11:02.200Z,4.58
2019-04-21T19:13:40.096Z,9.23
2019-04-21T19:16:20.056Z,4.75
2019-04-21T19:18:39.832Z,11.40
2019-04-21T19:20:53.824Z,5.15
2019-04-21T19:23:33.942Z,5.17
2019-04-21T19:26:04.983Z,10.25
2019-04-21T19:28:24.769Z,5.90
2019-04-21T19:31:02.524Z,8.85
2019-04-21T19:33:18.726Z,3.90
2019-04-21T19:35:35.167Z,9.20
2019-04-21T19:38:07.061Z,5.90
2019-04-21T19:40:49.434Z,11.08
2019-04-21T19:43:17.047Z,4.50
2019-04-21T19:45:42.213Z,8.43
2019-04-21T19:48:20.426Z,10.78
2019-04-21T19:50:50.536Z,7.35
2019-04-21T19:53:08.886Z,8.80
2019-04-21T19:55:27.825Z,9.03
2019-04-21T19:57:56.672Z,12.63
2019-04-21T20:00:24.460Z,18.17
2019-04-21T20:02:52.345Z,14.05
2019-04-21T20:05:28.216Z,16.95
2019-04-21T20:08:08.289Z,14.33
2019-04-21T20:10:39.500Z,15.43
2019-04-21T20:13:07.258Z,15.48
2019-04-21T20:15:42.047Z,13.45
2019-04-21T20:18:00.246Z,15.70
2019-04-21T20:20:17.090Z,14.03
2019-04-21T20:22:48.523Z,18.37
2019-04-21T20:25:18.102Z,21.73
2019-04-21T20:27:54.301Z,11.38
2019-04-21T20:30:31.081Z,10.40
2019-04-21T20:33:05.989Z,7.08
2019-04-21T20:35:40.390Z,5.53
2019-04-21T20:37:57.810Z,8.88
2019-04-21T20:40:25.338Z,6.72
2019-04-21T20:43:07.397Z,14.00
2019-04-21T20:45:35.219Z,10.38
2019-04-21T20:47:48.986Z,4.78
2019-04-21T20:50:28.637Z,7.40
2019-04-21T20:53:01.662Z,7.40
2019-04-21T20:55:21.523Z,7.33
2019-04-21T20:57:51.738Z,9.70
2019-04-21T21:00:31.772Z,6.03
2019-04-21T21:03:02.530Z,5.45
2019-04-21T21:05:24.677Z,5.22
2019-04-21T21:07:59.145Z,6.65
2019-04-21T21:10:25.107Z,8.35
2019-04-21T21:13:10.507Z,5.25
2019-04-21T21:15:19.724Z,7.58
2019-04-21T21:18:03.384Z,5.75
2019-04-21T21:20:26.246Z,14.05
2019-04-21T21:22:52.803Z,4.40
2019-04-21T21:25:30.528Z,5.60
2019-04-21T21:27:44.567Z,5.62
2019-04-21T21:30:21.659Z,8.68
2019-04-21T21:32:54.780Z,6.62
2019-04-21T21:35:17.762Z,7.08
2019-04-21T21:37:54.889Z,7.90
2019-04-21T21:40:28.655Z,8.98
2019-04-21T21:42:40.147Z,6.55
2019-04-21T21:45:13.762Z,6.70
2019-04-21T21:47:58.016Z,7.67
2019-04-21T21:50:14.623Z,8.30
2019-04-21T21:52:48.967Z,8.83
2019-04-21T21:55:07.674Z,7.37
2019-04-21T21:57:42.999Z,6.25
2019-04-21T22:00:11.466Z,9.50
2019-04-21T22:02:44.221Z,8.60
2019-04-21T22:05:12.184Z,7.72
2019-04-21T22:07:37.151Z,8.10
2019-04-21T22:10:08.591Z,12.10
2019-04-21T22:12:45.728Z,8.60
2019-04-21T22:15:13.966Z,6.75
2019-04-21T22:17:53.032Z,6.03
2019-04-21T22:20:27.151Z,6.60
2019-04-21T22:22:48.430Z,8.85
2019-04-21T22:25:12.648Z,8.83
2019-04-21T22:27:36.931Z,8.53
2019-04-21T22:30:10.939Z,6.83
2019-04-21T22:32:38.247Z,10.80
2019-04-21T22:35:16.095Z,8.00
2019-04-21T22:37:51.501Z,10.20
2019-04-21T22:40:19.572Z,12.63
2019-04-21T22:42:49.786Z,11.22
2019-04-21T22:45:07.278Z,8.58
2019-04-21T22:47:38.178Z,9.63
2019-04-21T22:50:06.456Z,10.10
2019-04-21T22:52:35.577Z,8.70
2019-04-21T22:55:13.756Z,10.48
2019-04-21T22:57:40.824Z,12.00
2019-04-21T23:00:11.869Z,16.40
2019-04-21T23:02:38.572Z,11.43
2019-04-21T23:05:06.448Z,10.90
2019-04-21T23:07:45.489Z,5.33
2019-04-21T23:10:05.500Z,7.75
2019-04-21T23:12:38.174Z,8.98
2019-04-21T23:15:09.224Z,12.18
2019-04-21T23:17:50.733Z,9.50
2019-04-21T23:20:22.627Z,11.75
2019-04-21T23:22:57.992Z,10.68
2019-04-21T23:25:18.433Z,8.80
2019-04-21T23:27:46.872Z,8.63
2019-04-21T23:30:31.053Z,6.45
2019-04-21T23:32:39.473Z,8.48
2019-04-21T23:35:01.651Z,7.20
2019-04-21T23:37:27.831Z,9.65
2019-04-21T23:40:04.181Z,8.05
2019-04-21T23:42:32.787Z,8.28
2019-04-21T23:44:58.096Z,7.75
2019-04-21T23:47:37.328Z,7.85
2019-04-21T23:50:00.094Z,7.28
2019-04-21T23:52:23.618Z,9.45
2019-04-21T23:54:51.601Z,9.18
2019-04-21T23:57:29.795Z,8.83
2019-04-21T23:59:53.461Z,9.23
